sensor_id;sensor_type;location;lat;lon;timestamp;temperature;humidity
21602;DHT22;10963;50.934;4.668;2023-01-05T00:01:44;12.10;99.90
21602;DHT22;10963;50.934;4.668;2023-01-05T00:04:10;12.00;99.90
21602;DHT22;10963;50.934;4.668;2023-01-05T00:06:39;11.90;99.90
21602;DHT22;10963;50.934;4.668;2023-01-05T00:09:07;11.90;99.90
21602;DHT22;10963;50.934;4.668;2023-01-05T00:11:33;11.90;99.90
21602;DHT22;10963;50.934;4.668;2023-01-05T00:14:27;12.00;99.90
21602;DHT22;10963;50.934;4.668;2023-01-05T00:17:13;12.00;99.90
21602;DHT22;10963;50.934;4.668;2023-01-05T00:19:58;11.90;99.90
21602;DHT22;10963;50.934;4.668;2023-01-05T00:22:50;12.00;99.90
21602;DHT22;10963;50.934;4.668;2023-01-05T00:27:47;12.00;99.90
21602;DHT22;10963;50.934;4.668;2023-01-05T00:30:17;11.90;99.90
21602;DHT22;10963;50.934;4.668;2023-01-05T00:32:44;11.90;99.90
21602;DHT22;10963;50.934;4.668;2023-01-05T00:35:11;12.00;99.90
21602;DHT22;10963;50.934;4.668;2023-01-05T00:37:40;12.10;99.90
21602;DHT22;10963;50.934;4.668;2023-01-05T00:40:13;12.10;99.90
21602;DHT22;10963;50.934;4.668;2023-01-05T00:42:44;12.00;99.90
21602;DHT22;10963;50.934;4.668;2023-01-05T00:45:14;12.00;99.90
21602;DHT22;10963;50.934;4.668;2023-01-05T00:47:41;12.10;99.90
21602;DHT22;10963;50.934;4.668;2023-01-05T00:50:09;12.10;99.90
21602;DHT22;10963;50.934;4.668;2023-01-05T00:52:39;12.10;99.90
21602;DHT22;10963;50.934;4.668;2023-01-05T00:55:05;12.00;99.90
21602;DHT22;10963;50.934;4.668;2023-01-05T00:57:31;12.20;99.90
21602;DHT22;10963;50.934;4.668;2023-01-05T00:59:59;12.20;99.90
21602;DHT22;10963;50.934;4.668;2023-01-05T01:02:28;12.10;99.90
21602;DHT22;10963;50.934;4.668;2023-01-05T01:04:56;12.10;99.90
21602;DHT22;10963;50.934;4.668;2023-01-05T01:07:25;12.20;99.90
21602;DHT22;10963;50.934;4.668;2023-01-05T01:09:50;12.20;99.90
21602;DHT22;10963;50.934;4.668;2023-01-05T01:12:16;12.30;99.90
21602;DHT22;10963;50.934;4.668;2023-01-05T01:14:46;12.20;99.90
21602;DHT22;10963;50.934;4.668;2023-01-05T01:17:12;12.30;99.90
21602;DHT22;10963;50.934;4.668;2023-01-05T01:19:42;12.30;99.90
21602;DHT22;10963;50.934;4.668;2023-01-05T01:22:12;12.30;99.90
21602;DHT22;10963;50.934;4.668;2023-01-05T01:24:38;12.20;99.90
21602;DHT22;10963;50.934;4.668;2023-01-05T01:27:04;12.20;99.90
21602;DHT22;10963;50.934;4.668;2023-01-05T01:29:32;12.10;99.90
21602;DHT22;10963;50.934;4.668;2023-01-05T01:32:00;12.10;99.90
21602;DHT22;10963;50.934;4.668;2023-01-05T01:34:26;12.00;99.90
21602;DHT22;10963;50.934;4.668;2023-01-05T01:36:54;11.80;99.90
21602;DHT22;10963;50.934;4.668;2023-01-05T01:39:20;11.80;99.90
21602;DHT22;10963;50.934;4.668;2023-01-05T01:41:46;11.80;99.90
21602;DHT22;10963;50.934;4.668;2023-01-05T01:44:52;11.80;99.90
21602;DHT22;10963;50.934;4.668;2023-01-05T01:47:44;11.80;99.90
21602;DHT22;10963;50.934;4.668;2023-01-05T01:50:30;11.90;99.90
21602;DHT22;10963;50.934;4.668;2023-01-05T01:53:10;11.90;99.90
21602;DHT22;10963;50.934;4.668;2023-01-05T01:55:37;12.00;99.90
21602;DHT22;10963;50.934;4.668;2023-01-05T01:58:12;11.90;99.90
21602;DHT22;10963;50.934;4.668;2023-01-05T02:00:40;12.00;99.90
21602;DHT22;10963;50.934;4.668;2023-01-05T02:03:09;12.00;99.90
21602;DHT22;10963;50.934;4.668;2023-01-05T02:05:35;11.90;99.90
21602;DHT22;10963;50.934;4.668;2023-01-05T02:08:05;12.00;99.90
21602;DHT22;10963;50.934;4.668;2023-01-05T02:11:15;11.90;99.90
21602;DHT22;10963;50.934;4.668;2023-01-05T02:31:20;12.10;99.90
21602;DHT22;10963;50.934;4.668;2023-01-05T02:36:28;12.20;99.90
21602;DHT22;10963;50.934;4.668;2023-01-05T02:39:24;12.20;99.90
21602;DHT22;10963;50.934;4.668;2023-01-05T02:42:02;12.20;99.90
21602;DHT22;10963;50.934;4.668;2023-01-05T02:44:31;12.20;99.90
21602;DHT22;10963;50.934;4.668;2023-01-05T02:50:00;12.20;99.90
21602;DHT22;10963;50.934;4.668;2023-01-05T02:52:37;12.10;99.90
21602;DHT22;10963;50.934;4.668;2023-01-05T02:55:07;12.20;99.90
21602;DHT22;10963;50.934;4.668;2023-01-05T02:57:40;12.20;99.90
21602;DHT22;10963;50.934;4.668;2023-01-05T03:00:37;12.20;99.90
21602;DHT22;10963;50.934;4.668;2023-01-05T03:03:18;12.20;99.90
21602;DHT22;10963;50.934;4.668;2023-01-05T03:05:55;12.10;99.90
21602;DHT22;10963;50.934;4.668;2023-01-05T03:08:23;12.30;99.90
21602;DHT22;10963;50.934;4.668;2023-01-05T03:13:49;12.60;99.90
21602;DHT22;10963;50.934;4.668;2023-01-05T03:16:29;12.60;99.90
21602;DHT22;10963;50.934;4.668;2023-01-05T03:18:58;12.60;99.90
21602;DHT22;10963;50.934;4.668;2023-01-05T03:21:45;12.50;99.90
21602;DHT22;10963;50.934;4.668;2023-01-05T03:24:30;12.50;99.90
21602;DHT22;10963;50.934;4.668;2023-01-05T03:27:14;12.50;99.90
21602;DHT22;10963;50.934;4.668;2023-01-05T03:29:59;12.50;99.90
21602;DHT22;10963;50.934;4.668;2023-01-05T03:32:48;12.60;99.90
21602;DHT22;10963;50.934;4.668;2023-01-05T03:35:38;12.50;99.90
21602;DHT22;10963;50.934;4.668;2023-01-05T03:38:44;12.40;99.90
21602;DHT22;10963;50.934;4.668;2023-01-05T03:41:09;12.50;99.90
21602;DHT22;10963;50.934;4.668;2023-01-05T03:43:36;12.40;99.90
21602;DHT22;10963;50.934;4.668;2023-01-05T03:46:12;12.30;99.90
21602;DHT22;10963;50.934;4.668;2023-01-05T03:48:39;12.30;99.90
21602;DHT22;10963;50.934;4.668;2023-01-05T03:51:05;12.30;99.90
21602;DHT22;10963;50.934;4.668;2023-01-05T03:53:31;12.40;99.90
21602;DHT22;10963;50.934;4.668;2023-01-05T03:55:59;12.40;99.90
21602;DHT22;10963;50.934;4.668;2023-01-05T03:58:28;12.40;99.90
21602;DHT22;10963;50.934;4.668;2023-01-05T04:00:53;12.50;99.90
21602;DHT22;10963;50.934;4.668;2023-01-05T04:03:22;12.50;99.90
21602;DHT22;10963;50.934;4.668;2023-01-05T04:05:50;12.50;99.90
21602;DHT22;10963;50.934;4.668;2023-01-05T04:08:16;12.50;99.90
21602;DHT22;10963;50.934;4.668;2023-01-05T04:10:41;12.60;99.90
21602;DHT22;10963;50.934;4.668;2023-01-05T04:13:07;12.60;99.90
21602;DHT22;10963;50.934;4.668;2023-01-05T04:15:35;12.50;99.90
21602;DHT22;10963;50.934;4.668;2023-01-05T04:18:01;12.50;99.90
21602;DHT22;10963;50.934;4.668;2023-01-05T04:20:29;12.60;99.90
21602;DHT22;10963;50.934;4.668;2023-01-05T04:22:57;12.50;99.90
21602;DHT22;10963;50.934;4.668;2023-01-05T04:25:23;12.50;99.90
21602;DHT22;10963;50.934;4.668;2023-01-05T04:27:53;12.60;99.90
21602;DHT22;10963;50.934;4.668;2023-01-05T04:30:19;12.60;99.90
21602;DHT22;10963;50.934;4.668;2023-01-05T04:32:48;12.60;99.90
21602;DHT22;10963;50.934;4.668;2023-01-05T04:35:16;12.60;99.90
21602;DHT22;10963;50.934;4.668;2023-01-05T04:37:42;12.50;99.90
21602;DHT22;10963;50.934;4.668;2023-01-05T04:40:08;12.50;99.90
21602;DHT22;10963;50.934;4.668;2023-01-05T04:42:34;12.50;99.90
21602;DHT22;10963;50.934;4.668;2023-01-05T04:45:02;12.50;99.90
21602;DHT22;10963;50.934;4.668;2023-01-05T04:47:27;12.50;99.90
21602;DHT22;10963;50.934;4.668;2023-01-05T04:49:53;12.50;99.90
21602;DHT22;10963;50.934;4.668;2023-01-05T04:52:19;12.50;99.90
21602;DHT22;10963;50.934;4.668;2023-01-05T04:54:47;12.50;99.90
21602;DHT22;10963;50.934;4.668;2023-01-05T04:57:13;12.50;99.90
21602;DHT22;10963;50.934;4.668;2023-01-05T04:59:41;12.40;99.90
21602;DHT22;10963;50.934;4.668;2023-01-05T05:02:10;12.50;99.90
21602;DHT22;10963;50.934;4.668;2023-01-05T05:04:38;12.40;99.90
21602;DHT22;10963;50.934;4.668;2023-01-05T05:07:07;12.40;99.90
21602;DHT22;10963;50.934;4.668;2023-01-05T05:09:33;12.50;99.90
21602;DHT22;10963;50.934;4.668;2023-01-05T05:11:58;12.50;99.90
21602;DHT22;10963;50.934;4.668;2023-01-05T05:14:26;12.50;99.90
21602;DHT22;10963;50.934;4.668;2023-01-05T05:16:52;12.40;99.90
21602;DHT22;10963;50.934;4.668;2023-01-05T05:19:18;12.40;99.90
21602;DHT22;10963;50.934;4.668;2023-01-05T05:21:49;12.40;99.90
21602;DHT22;10963;50.934;4.668;2023-01-05T05:24:17;12.40;99.90
21602;DHT22;10963;50.934;4.668;2023-01-05T05:26:43;12.40;99.90
21602;DHT22;10963;50.934;4.668;2023-01-05T05:29:11;12.40;99.90
21602;DHT22;10963;50.934;4.668;2023-01-05T05:31:39;12.50;99.90
21602;DHT22;10963;50.934;4.668;2023-01-05T05:34:07;12.50;99.90
21602;DHT22;10963;50.934;4.668;2023-01-05T05:36:32;12.40;99.90
21602;DHT22;10963;50.934;4.668;2023-01-05T05:39:00;12.40;99.90
21602;DHT22;10963;50.934;4.668;2023-01-05T05:41:25;12.40;99.90
21602;DHT22;10963;50.934;4.668;2023-01-05T05:43:51;12.50;99.90
21602;DHT22;10963;50.934;4.668;2023-01-05T05:46:23;12.50;99.90
21602;DHT22;10963;50.934;4.668;2023-01-05T05:48:48;12.30;99.90
21602;DHT22;10963;50.934;4.668;2023-01-05T05:51:14;12.30;99.90
21602;DHT22;10963;50.934;4.668;2023-01-05T05:53:40;12.40;99.90
21602;DHT22;10963;50.934;4.668;2023-01-05T05:56:05;12.30;99.90
21602;DHT22;10963;50.934;4.668;2023-01-05T05:58:32;12.20;99.90
21602;DHT22;10963;50.934;4.668;2023-01-05T06:01:00;12.30;99.90
21602;DHT22;10963;50.934;4.668;2023-01-05T06:03:28;12.40;99.90
21602;DHT22;10963;50.934;4.668;2023-01-05T06:05:56;12.40;99.90
21602;DHT22;10963;50.934;4.668;2023-01-05T06:08:22;12.40;99.90
21602;DHT22;10963;50.934;4.668;2023-01-05T06:10:51;12.40;99.90
21602;DHT22;10963;50.934;4.668;2023-01-05T06:13:17;12.30;99.90
21602;DHT22;10963;50.934;4.668;2023-01-05T06:15:42;12.20;99.90
21602;DHT22;10963;50.934;4.668;2023-01-05T06:18:13;12.20;99.90
21602;DHT22;10963;50.934;4.668;2023-01-05T06:20:41;12.10;99.90
21602;DHT22;10963;50.934;4.668;2023-01-05T06:23:09;12.20;99.90
21602;DHT22;10963;50.934;4.668;2023-01-05T06:25:41;12.40;99.90
21602;DHT22;10963;50.934;4.668;2023-01-05T06:28:07;12.40;99.90
21602;DHT22;10963;50.934;4.668;2023-01-05T06:30:38;12.40;99.90
21602;DHT22;10963;50.934;4.668;2023-01-05T06:33:03;12.30;99.90
21602;DHT22;10963;50.934;4.668;2023-01-05T06:35:29;12.30;99.90
21602;DHT22;10963;50.934;4.668;2023-01-05T06:37:56;12.30;99.90
21602;DHT22;10963;50.934;4.668;2023-01-05T06:40:21;12.20;99.90
21602;DHT22;10963;50.934;4.668;2023-01-05T06:42:47;12.20;99.90
21602;DHT22;10963;50.934;4.668;2023-01-05T06:45:14;12.30;99.90
21602;DHT22;10963;50.934;4.668;2023-01-05T06:47:44;12.40;99.90
21602;DHT22;10963;50.934;4.668;2023-01-05T06:50:12;12.40;99.90
21602;DHT22;10963;50.934;4.668;2023-01-05T06:52:40;12.50;99.90
21602;DHT22;10963;50.934;4.668;2023-01-05T06:55:07;12.50;99.90
21602;DHT22;10963;50.934;4.668;2023-01-05T06:57:38;12.40;99.90
21602;DHT22;10963;50.934;4.668;2023-01-05T07:00:09;12.30;99.90
21602;DHT22;10963;50.934;4.668;2023-01-05T07:02:35;12.30;99.90
21602;DHT22;10963;50.934;4.668;2023-01-05T07:05:04;12.20;99.90
21602;DHT22;10963;50.934;4.668;2023-01-05T07:07:33;12.20;99.90
21602;DHT22;10963;50.934;4.668;2023-01-05T07:09:59;12.20;99.90
21602;DHT22;10963;50.934;4.668;2023-01-05T07:12:25;12.30;99.90
21602;DHT22;10963;50.934;4.668;2023-01-05T07:14:50;12.40;99.90
21602;DHT22;10963;50.934;4.668;2023-01-05T07:17:19;12.50;99.90
21602;DHT22;10963;50.934;4.668;2023-01-05T07:19:44;12.40;99.90
21602;DHT22;10963;50.934;4.668;2023-01-05T07:22:10;12.30;99.90
21602;DHT22;10963;50.934;4.668;2023-01-05T07:24:36;12.30;99.90
21602;DHT22;10963;50.934;4.668;2023-01-05T07:27:02;12.40;99.90
21602;DHT22;10963;50.934;4.668;2023-01-05T07:29:27;12.40;99.90
21602;DHT22;10963;50.934;4.668;2023-01-05T07:31:56;12.40;99.90
21602;DHT22;10963;50.934;4.668;2023-01-05T07:34:24;12.40;99.90
21602;DHT22;10963;50.934;4.668;2023-01-05T07:36:52;12.40;99.90
21602;DHT22;10963;50.934;4.668;2023-01-05T07:39:22;12.30;99.90
21602;DHT22;10963;50.934;4.668;2023-01-05T07:41:50;12.30;99.90
21602;DHT22;10963;50.934;4.668;2023-01-05T07:44:16;12.40;99.90
21602;DHT22;10963;50.934;4.668;2023-01-05T07:46:45;12.40;99.90
21602;DHT22;10963;50.934;4.668;2023-01-05T07:49:10;12.40;99.90
21602;DHT22;10963;50.934;4.668;2023-01-05T07:51:36;12.40;99.90
21602;DHT22;10963;50.934;4.668;2023-01-05T07:54:04;12.40;99.90
21602;DHT22;10963;50.934;4.668;2023-01-05T07:56:32;12.50;99.90
21602;DHT22;10963;50.934;4.668;2023-01-05T07:59:00;12.40;99.90
21602;DHT22;10963;50.934;4.668;2023-01-05T08:01:26;12.40;99.90
21602;DHT22;10963;50.934;4.668;2023-01-05T08:03:54;12.30;99.90
21602;DHT22;10963;50.934;4.668;2023-01-05T08:06:20;12.20;99.90
21602;DHT22;10963;50.934;4.668;2023-01-05T08:08:46;12.30;99.90
21602;DHT22;10963;50.934;4.668;2023-01-05T08:11:14;12.20;99.90
21602;DHT22;10963;50.934;4.668;2023-01-05T08:13:42;12.40;99.90
21602;DHT22;10963;50.934;4.668;2023-01-05T08:16:28;12.30;99.90
21602;DHT22;10963;50.934;4.668;2023-01-05T08:18:54;12.40;99.90
21602;DHT22;10963;50.934;4.668;2023-01-05T08:21:20;12.50;99.90
21602;DHT22;10963;50.934;4.668;2023-01-05T08:23:51;12.50;99.90
21602;DHT22;10963;50.934;4.668;2023-01-05T08:26:24;12.40;99.90
21602;DHT22;10963;50.934;4.668;2023-01-05T08:28:51;12.40;99.90
21602;DHT22;10963;50.934;4.668;2023-01-05T08:31:22;12.30;99.90
21602;DHT22;10963;50.934;4.668;2023-01-05T08:33:52;12.40;99.90
21602;DHT22;10963;50.934;4.668;2023-01-05T08:36:19;12.20;99.90
21602;DHT22;10963;50.934;4.668;2023-01-05T08:38:52;12.20;99.90
21602;DHT22;10963;50.934;4.668;2023-01-05T08:41:27;12.30;99.90
21602;DHT22;10963;50.934;4.668;2023-01-05T08:43:55;12.30;99.90
21602;DHT22;10963;50.934;4.668;2023-01-05T08:46:24;12.40;99.90
21602;DHT22;10963;50.934;4.668;2023-01-05T08:48:57;12.40;99.90
21602;DHT22;10963;50.934;4.668;2023-01-05T08:51:26;12.50;99.90
21602;DHT22;10963;50.934;4.668;2023-01-05T08:53:53;12.60;99.90
21602;DHT22;10963;50.934;4.668;2023-01-05T08:56:23;12.60;99.90
21602;DHT22;10963;50.934;4.668;2023-01-05T08:58:53;12.70;99.90
21602;DHT22;10963;50.934;4.668;2023-01-05T09:01:26;12.50;99.90
21602;DHT22;10963;50.934;4.668;2023-01-05T09:03:54;12.60;99.90
21602;DHT22;10963;50.934;4.668;2023-01-05T09:06:22;12.50;99.90
21602;DHT22;10963;50.934;4.668;2023-01-05T09:08:50;12.50;99.90
21602;DHT22;10963;50.934;4.668;2023-01-05T09:11:23;12.70;99.90
21602;DHT22;10963;50.934;4.668;2023-01-05T09:13:58;12.80;99.90
21602;DHT22;10963;50.934;4.668;2023-01-05T09:16:31;12.80;99.90
21602;DHT22;10963;50.934;4.668;2023-01-05T09:19:02;12.90;99.90
21602;DHT22;10963;50.934;4.668;2023-01-05T09:21:29;13.00;99.90
21602;DHT22;10963;50.934;4.668;2023-01-05T09:23:59;13.00;99.90
21602;DHT22;10963;50.934;4.668;2023-01-05T09:26:25;13.00;99.90
21602;DHT22;10963;50.934;4.668;2023-01-05T09:28:51;13.00;99.90
21602;DHT22;10963;50.934;4.668;2023-01-05T09:31:19;12.80;99.90
21602;DHT22;10963;50.934;4.668;2023-01-05T09:33:45;12.60;99.90
21602;DHT22;10963;50.934;4.668;2023-01-05T09:36:14;12.60;99.90
21602;DHT22;10963;50.934;4.668;2023-01-05T09:38:40;12.50;99.90
21602;DHT22;10963;50.934;4.668;2023-01-05T09:41:07;12.60;99.90
21602;DHT22;10963;50.934;4.668;2023-01-05T09:43:40;12.60;99.90
21602;DHT22;10963;50.934;4.668;2023-01-05T09:46:19;12.50;99.90
21602;DHT22;10963;50.934;4.668;2023-01-05T09:48:52;12.50;99.90
21602;DHT22;10963;50.934;4.668;2023-01-05T09:51:18;12.70;99.90
21602;DHT22;10963;50.934;4.668;2023-01-05T09:53:47;12.80;99.90
21602;DHT22;10963;50.934;4.668;2023-01-05T09:58:50;13.20;99.90
21602;DHT22;10963;50.934;4.668;2023-01-05T10:01:21;13.30;99.90
21602;DHT22;10963;50.934;4.668;2023-01-05T10:03:55;13.30;99.90
21602;DHT22;10963;50.934;4.668;2023-01-05T10:06:29;13.20;99.90
21602;DHT22;10963;50.934;4.668;2023-01-05T10:08:56;13.10;99.90
21602;DHT22;10963;50.934;4.668;2023-01-05T10:11:42;13.20;99.90
21602;DHT22;10963;50.934;4.668;2023-01-05T10:14:34;13.20;99.90
21602;DHT22;10963;50.934;4.668;2023-01-05T10:17:02;13.20;99.90
21602;DHT22;10963;50.934;4.668;2023-01-05T10:19:30;13.20;99.90
21602;DHT22;10963;50.934;4.668;2023-01-05T10:24:31;12.90;99.90
21602;DHT22;10963;50.934;4.668;2023-01-05T10:29:48;13.30;99.90
21602;DHT22;10963;50.934;4.668;2023-01-05T10:32:39;13.10;99.90
21602;DHT22;10963;50.934;4.668;2023-01-05T10:40:57;12.40;99.90
21602;DHT22;10963;50.934;4.668;2023-01-05T10:46:12;12.30;99.90
21602;DHT22;10963;50.934;4.668;2023-01-05T10:48:40;12.40;99.90
21602;DHT22;10963;50.934;4.668;2023-01-05T10:51:06;12.50;99.90
21602;DHT22;10963;50.934;4.668;2023-01-05T10:53:35;12.90;99.90
21602;DHT22;10963;50.934;4.668;2023-01-05T10:56:12;13.00;99.90
21602;DHT22;10963;50.934;4.668;2023-01-05T10:58:43;13.10;99.90
21602;DHT22;10963;50.934;4.668;2023-01-05T11:03:52;13.30;99.90
21602;DHT22;10963;50.934;4.668;2023-01-05T11:06:31;13.30;99.90
21602;DHT22;10963;50.934;4.668;2023-01-05T11:09:08;13.30;99.90
21602;DHT22;10963;50.934;4.668;2023-01-05T11:11:39;13.50;99.90
21602;DHT22;10963;50.934;4.668;2023-01-05T11:14:05;13.70;99.90
21602;DHT22;10963;50.934;4.668;2023-01-05T11:16:37;13.70;99.90
21602;DHT22;10963;50.934;4.668;2023-01-05T11:19:05;13.80;99.90
21602;DHT22;10963;50.934;4.668;2023-01-05T11:24:08;13.80;99.90
21602;DHT22;10963;50.934;4.668;2023-01-05T11:26:55;13.80;99.90
21602;DHT22;10963;50.934;4.668;2023-01-05T11:29:24;13.70;99.90
21602;DHT22;10963;50.934;4.668;2023-01-05T11:31:59;13.70;99.90
21602;DHT22;10963;50.934;4.668;2023-01-05T11:44:54;14.00;99.90
21602;DHT22;10963;50.934;4.668;2023-01-05T11:47:46;14.10;99.90
21602;DHT22;10963;50.934;4.668;2023-01-05T11:52:49;14.00;99.90
21602;DHT22;10963;50.934;4.668;2023-01-05T11:55:24;13.90;99.90
21602;DHT22;10963;50.934;4.668;2023-01-05T11:57:52;14.00;99.90
21602;DHT22;10963;50.934;4.668;2023-01-05T12:00:39;14.10;99.90
21602;DHT22;10963;50.934;4.668;2023-01-05T12:05:49;14.30;99.90
21602;DHT22;10963;50.934;4.668;2023-01-05T12:08:27;14.10;99.90
21602;DHT22;10963;50.934;4.668;2023-01-05T12:11:11;14.30;99.90
21602;DHT22;10963;50.934;4.668;2023-01-05T12:16:54;14.20;99.90
21602;DHT22;10963;50.934;4.668;2023-01-05T12:19:35;13.90;99.90
21602;DHT22;10963;50.934;4.668;2023-01-05T12:35:58;14.10;99.90
21602;DHT22;10963;50.934;4.668;2023-01-05T12:43:08;14.50;99.90
21602;DHT22;10963;50.934;4.668;2023-01-05T12:51:04;14.40;99.90
21602;DHT22;10963;50.934;4.668;2023-01-05T12:56:36;14.40;99.90
21602;DHT22;10963;50.934;4.668;2023-01-05T13:01:58;14.20;99.90
21602;DHT22;10963;50.934;4.668;2023-01-05T13:07:09;14.10;99.90
21602;DHT22;10963;50.934;4.668;2023-01-05T13:09:41;13.90;99.90
21602;DHT22;10963;50.934;4.668;2023-01-05T13:12:10;13.90;99.90
21602;DHT22;10963;50.934;4.668;2023-01-05T13:14:46;13.90;99.90
21602;DHT22;10963;50.934;4.668;2023-01-05T13:17:39;14.00;99.90
21602;DHT22;10963;50.934;4.668;2023-01-05T13:20:25;14.00;99.90
21602;DHT22;10963;50.934;4.668;2023-01-05T13:22:58;13.90;99.90
21602;DHT22;10963;50.934;4.668;2023-01-05T13:25:28;13.70;99.90
21602;DHT22;10963;50.934;4.668;2023-01-05T13:27:57;13.70;99.90
21602;DHT22;10963;50.934;4.668;2023-01-05T13:30:33;13.60;99.90
21602;DHT22;10963;50.934;4.668;2023-01-05T13:41:54;12.90;99.90
21602;DHT22;10963;50.934;4.668;2023-01-05T13:55:19;13.30;99.90
21602;DHT22;10963;50.934;4.668;2023-01-05T13:57:47;13.30;99.90
21602;DHT22;10963;50.934;4.668;2023-01-05T14:00:55;13.20;99.90
21602;DHT22;10963;50.934;4.668;2023-01-05T14:03:28;13.30;99.90
21602;DHT22;10963;50.934;4.668;2023-01-05T14:06:01;13.20;99.90
21602;DHT22;10963;50.934;4.668;2023-01-05T14:08:36;13.20;99.90
21602;DHT22;10963;50.934;4.668;2023-01-05T14:29:58;12.80;99.90
21602;DHT22;10963;50.934;4.668;2023-01-05T14:34:55;12.40;99.90
21602;DHT22;10963;50.934;4.668;2023-01-05T14:37:38;12.20;99.90
21602;DHT22;10963;50.934;4.668;2023-01-05T14:40:42;12.10;99.90
21602;DHT22;10963;50.934;4.668;2023-01-05T14:46:13;12.40;99.90
21602;DHT22;10963;50.934;4.668;2023-01-05T14:48:59;12.40;99.90
21602;DHT22;10963;50.934;4.668;2023-01-05T14:51:32;12.20;99.90
21602;DHT22;10963;50.934;4.668;2023-01-05T14:54:03;12.30;99.90
21602;DHT22;10963;50.934;4.668;2023-01-05T14:56:31;12.30;99.90
21602;DHT22;10963;50.934;4.668;2023-01-05T14:59:22;12.20;99.90
21602;DHT22;10963;50.934;4.668;2023-01-05T15:02:07;12.30;99.90
21602;DHT22;10963;50.934;4.668;2023-01-05T15:04:41;12.40;99.90
21602;DHT22;10963;50.934;4.668;2023-01-05T15:21:28;12.80;99.90
21602;DHT22;10963;50.934;4.668;2023-01-05T15:27:03;13.00;99.90
21602;DHT22;10963;50.934;4.668;2023-01-05T15:32:33;12.90;99.90
21602;DHT22;10963;50.934;4.668;2023-01-05T15:35:11;12.90;99.90
21602;DHT22;10963;50.934;4.668;2023-01-05T15:37:41;12.90;99.90
21602;DHT22;10963;50.934;4.668;2023-01-05T15:42:49;12.90;99.90
21602;DHT22;10963;50.934;4.668;2023-01-05T15:45:29;12.80;99.90
21602;DHT22;10963;50.934;4.668;2023-01-05T15:48:00;12.90;99.90
21602;DHT22;10963;50.934;4.668;2023-01-05T15:50:50;12.70;99.90
21602;DHT22;10963;50.934;4.668;2023-01-05T15:53:34;12.60;99.90
21602;DHT22;10963;50.934;4.668;2023-01-05T15:56:04;12.70;99.90
21602;DHT22;10963;50.934;4.668;2023-01-05T15:58:45;12.70;99.90
21602;DHT22;10963;50.934;4.668;2023-01-05T16:01:13;12.70;99.90
21602;DHT22;10963;50.934;4.668;2023-01-05T16:03:41;12.70;99.90
21602;DHT22;10963;50.934;4.668;2023-01-05T16:08:48;12.70;99.90
21602;DHT22;10963;50.934;4.668;2023-01-05T16:11:22;12.70;99.90
21602;DHT22;10963;50.934;4.668;2023-01-05T16:14:01;12.80;99.90
21602;DHT22;10963;50.934;4.668;2023-01-05T16:16:42;12.70;99.90
21602;DHT22;10963;50.934;4.668;2023-01-05T16:19:23;12.70;99.90
21602;DHT22;10963;50.934;4.668;2023-01-05T16:22:02;12.60;99.90
21602;DHT22;10963;50.934;4.668;2023-01-05T16:24:39;12.50;99.90
21602;DHT22;10963;50.934;4.668;2023-01-05T16:27:11;12.40;99.90
21602;DHT22;10963;50.934;4.668;2023-01-05T16:29:46;12.40;99.90
21602;DHT22;10963;50.934;4.668;2023-01-05T16:35:20;12.50;99.90
21602;DHT22;10963;50.934;4.668;2023-01-05T16:38:25;12.60;99.90
21602;DHT22;10963;50.934;4.668;2023-01-05T16:41:23;12.60;99.90
21602;DHT22;10963;50.934;4.668;2023-01-05T16:43:58;12.60;99.90
21602;DHT22;10963;50.934;4.668;2023-01-05T16:46:29;12.70;99.90
21602;DHT22;10963;50.934;4.668;2023-01-05T16:49:30;12.60;99.90
21602;DHT22;10963;50.934;4.668;2023-01-05T16:52:01;12.40;99.90
21602;DHT22;10963;50.934;4.668;2023-01-05T16:54:34;12.50;99.90
21602;DHT22;10963;50.934;4.668;2023-01-05T16:57:40;12.50;99.90
21602;DHT22;10963;50.934;4.668;2023-01-05T17:02:52;12.60;99.90
21602;DHT22;10963;50.934;4.668;2023-01-05T17:05:32;12.70;99.90
21602;DHT22;10963;50.934;4.668;2023-01-05T17:08:13;12.70;99.90
21602;DHT22;10963;50.934;4.668;2023-01-05T17:10:41;12.60;99.90
21602;DHT22;10963;50.934;4.668;2023-01-05T17:13:18;12.60;99.90
21602;DHT22;10963;50.934;4.668;2023-01-05T17:15:49;12.60;99.90
21602;DHT22;10963;50.934;4.668;2023-01-05T17:18:21;12.70;99.90
21602;DHT22;10963;50.934;4.668;2023-01-05T17:20:47;12.60;99.90
21602;DHT22;10963;50.934;4.668;2023-01-05T17:26:03;12.60;99.90
21602;DHT22;10963;50.934;4.668;2023-01-05T17:28:30;12.50;99.90
21602;DHT22;10963;50.934;4.668;2023-01-05T17:30:55;12.50;99.90
21602;DHT22;10963;50.934;4.668;2023-01-05T17:33:21;12.50;99.90
21602;DHT22;10963;50.934;4.668;2023-01-05T17:35:47;12.60;99.90
21602;DHT22;10963;50.934;4.668;2023-01-05T17:38:13;12.60;99.90
21602;DHT22;10963;50.934;4.668;2023-01-05T17:40:39;12.50;99.90
21602;DHT22;10963;50.934;4.668;2023-01-05T17:43:07;12.50;99.90
21602;DHT22;10963;50.934;4.668;2023-01-05T17:45:34;12.60;99.90
21602;DHT22;10963;50.934;4.668;2023-01-05T17:48:03;12.70;99.90
21602;DHT22;10963;50.934;4.668;2023-01-05T17:50:37;12.70;99.90
21602;DHT22;10963;50.934;4.668;2023-01-05T17:53:03;12.60;99.90
21602;DHT22;10963;50.934;4.668;2023-01-05T17:55:30;12.50;99.90
21602;DHT22;10963;50.934;4.668;2023-01-05T17:57:57;12.40;99.90
21602;DHT22;10963;50.934;4.668;2023-01-05T18:00:30;12.50;99.90
21602;DHT22;10963;50.934;4.668;2023-01-05T18:03:04;12.60;99.90
21602;DHT22;10963;50.934;4.668;2023-01-05T18:05:34;12.60;99.90
21602;DHT22;10963;50.934;4.668;2023-01-05T18:08:00;12.60;99.90
21602;DHT22;10963;50.934;4.668;2023-01-05T18:10:30;12.50;99.90
21602;DHT22;10963;50.934;4.668;2023-01-05T18:12:56;12.50;99.90
21602;DHT22;10963;50.934;4.668;2023-01-05T18:15:28;12.50;99.90
21602;DHT22;10963;50.934;4.668;2023-01-05T18:18:00;12.60;99.90
21602;DHT22;10963;50.934;4.668;2023-01-05T18:20:28;12.60;99.90
21602;DHT22;10963;50.934;4.668;2023-01-05T18:22:54;12.70;99.90
21602;DHT22;10963;50.934;4.668;2023-01-05T18:25:20;12.80;99.90
21602;DHT22;10963;50.934;4.668;2023-01-05T18:27:46;12.80;99.90
21602;DHT22;10963;50.934;4.668;2023-01-05T18:30:12;12.80;99.90
21602;DHT22;10963;50.934;4.668;2023-01-05T18:32:40;12.80;99.90
21602;DHT22;10963;50.934;4.668;2023-01-05T18:35:09;12.90;99.90
21602;DHT22;10963;50.934;4.668;2023-01-05T18:37:37;13.00;99.90
21602;DHT22;10963;50.934;4.668;2023-01-05T18:40:03;13.10;99.90
21602;DHT22;10963;50.934;4.668;2023-01-05T18:42:31;13.30;99.90
21602;DHT22;10963;50.934;4.668;2023-01-05T18:45:04;13.30;99.90
21602;DHT22;10963;50.934;4.668;2023-01-05T18:47:31;13.20;99.90
21602;DHT22;10963;50.934;4.668;2023-01-05T18:49:59;13.10;99.90
21602;DHT22;10963;50.934;4.668;2023-01-05T18:52:31;13.10;99.90
21602;DHT22;10963;50.934;4.668;2023-01-05T18:54:59;13.30;99.90
21602;DHT22;10963;50.934;4.668;2023-01-05T18:57:25;13.30;99.90